sensor_id;sensor_type;location;lat;lon;timestamp;pressure;altitude;pressure_sealevel;temperature;humidity
71149;BME280;59072;42.144;25.200;2023-07-13T00:01:14;100121.44;;;25.85;72.44
71149;BME280;59072;42.144;25.200;2023-07-13T00:03:39;100136.19;;;25.84;73.02
71149;BME280;59072;42.144;25.200;2023-07-13T00:06:07;100119.88;;;26.01;71.98
71149;BME280;59072;42.144;25.200;2023-07-13T00:08:33;100126.59;;;26.04;72.05
71149;BME280;59072;42.144;25.200;2023-07-13T00:10:59;100128.00;;;25.75;73.65
71149;BME280;59072;42.144;25.200;2023-07-13T00:13:25;100122.38;;;25.72;73.88
71149;BME280;59072;42.144;25.200;2023-07-13T00:15:50;100114.53;;;25.88;73.04
71149;BME280;59072;42.144;25.200;2023-07-13T00:18:16;100118.84;;;25.62;74.24
71149;BME280;59072;42.144;25.200;2023-07-13T00:20:44;100125.03;;;25.45;75.21
71149;BME280;59072;42.144;25.200;2023-07-13T00:23:09;100107.44;;;25.20;75.85
71149;BME280;59072;42.144;25.200;2023-07-13T00:25:35;100121.31;;;25.33;76.32
71149;BME280;59072;42.144;25.200;2023-07-13T00:28:00;100104.16;;;25.32;75.80
71149;BME280;59072;42.144;25.200;2023-07-13T00:30:26;100120.72;;;25.53;75.33
71149;BME280;59072;42.144;25.200;2023-07-13T00:32:51;100119.81;;;25.66;74.58
71149;BME280;59072;42.144;25.200;2023-07-13T00:35:17;100117.25;;;25.79;73.79
71149;BME280;59072;42.144;25.200;2023-07-13T00:37:43;100109.41;;;26.03;71.88
71149;BME280;59072;42.144;25.200;2023-07-13T00:40:11;100097.72;;;25.28;75.24
71149;BME280;59072;42.144;25.200;2023-07-13T00:42:40;100114.63;;;25.08;76.95
71149;BME280;59072;42.144;25.200;2023-07-13T00:47:40;100106.13;;;25.09;77.13
71149;BME280;59072;42.144;25.200;2023-07-13T00:50:10;100105.59;;;25.30;76.20
71149;BME280;59072;42.144;25.200;2023-07-13T00:52:43;100100.28;;;25.33;76.01
71149;BME280;59072;42.144;25.200;2023-07-13T00:55:13;100099.00;;;25.31;76.28
71149;BME280;59072;42.144;25.200;2023-07-13T00:57:42;100112.03;;;25.34;76.15
71149;BME280;59072;42.144;25.200;2023-07-13T01:00:11;100103.66;;;25.39;75.93
71149;BME280;59072;42.144;25.200;2023-07-13T01:02:43;100102.84;;;25.30;76.38
71149;BME280;59072;42.144;25.200;2023-07-13T01:05:14;100103.06;;;25.59;75.01
71149;BME280;59072;42.144;25.200;2023-07-13T01:07:40;100109.44;;;25.29;76.35
71149;BME280;59072;42.144;25.200;2023-07-13T01:10:07;100104.22;;;25.18;76.53
71149;BME280;59072;42.144;25.200;2023-07-13T01:12:33;100108.59;;;24.88;78.62
71149;BME280;59072;42.144;25.200;2023-07-13T01:15:00;100096.53;;;25.20;77.24
71149;BME280;59072;42.144;25.200;2023-07-13T01:17:31;100106.22;;;24.64;76.83
71149;BME280;59072;42.144;25.200;2023-07-13T01:19:58;100096.78;;;24.70;77.48
71149;BME280;59072;42.144;25.200;2023-07-13T01:22:26;100077.53;;;24.66;76.13
71149;BME280;59072;42.144;25.200;2023-07-13T01:24:54;100092.66;;;24.73;78.17
71149;BME280;59072;42.144;25.200;2023-07-13T01:27:25;100087.63;;;24.66;76.99
71149;BME280;59072;42.144;25.200;2023-07-13T01:29:59;100087.06;;;24.86;77.10
71149;BME280;59072;42.144;25.200;2023-07-13T01:32:28;100088.97;;;24.77;76.47
71149;BME280;59072;42.144;25.200;2023-07-13T01:34:56;100089.84;;;24.64;77.71
71149;BME280;59072;42.144;25.200;2023-07-13T01:37:25;100083.69;;;24.50;78.42
71149;BME280;59072;42.144;25.200;2023-07-13T01:39:53;100085.88;;;24.47;79.04
71149;BME280;59072;42.144;25.200;2023-07-13T01:42:21;100102.22;;;24.70;78.53
71149;BME280;59072;42.144;25.200;2023-07-13T01:44:46;100098.63;;;24.83;77.16
71149;BME280;59072;42.144;25.200;2023-07-13T01:47:12;100100.88;;;24.81;77.65
71149;BME280;59072;42.144;25.200;2023-07-13T01:49:37;100104.38;;;24.82;77.34
71149;BME280;59072;42.144;25.200;2023-07-13T01:52:03;100101.66;;;24.82;76.64
71149;BME280;59072;42.144;25.200;2023-07-13T01:54:29;100111.22;;;25.02;76.16
71149;BME280;59072;42.144;25.200;2023-07-13T01:56:56;100107.13;;;24.82;76.92
71149;BME280;59072;42.144;25.200;2023-07-13T01:59:22;100110.22;;;24.89;77.06
71149;BME280;59072;42.144;25.200;2023-07-13T02:01:47;100111.31;;;24.57;78.56
71149;BME280;59072;42.144;25.200;2023-07-13T02:04:15;100105.06;;;24.34;79.35
71149;BME280;59072;42.144;25.200;2023-07-13T02:06:41;100116.81;;;24.65;78.02
71149;BME280;59072;42.144;25.200;2023-07-13T02:09:06;100118.09;;;24.68;78.24
71149;BME280;59072;42.144;25.200;2023-07-13T02:11:35;100109.34;;;24.80;77.32
71149;BME280;59072;42.144;25.200;2023-07-13T02:14:01;100116.97;;;24.92;76.97
71149;BME280;59072;42.144;25.200;2023-07-13T02:16:27;100110.38;;;24.93;76.75
71149;BME280;59072;42.144;25.200;2023-07-13T02:18:53;100122.31;;;24.74;78.38
71149;BME280;59072;42.144;25.200;2023-07-13T02:21:18;100106.97;;;24.56;78.78
71149;BME280;59072;42.144;25.200;2023-07-13T02:23:44;100116.19;;;24.46;79.12
71149;BME280;59072;42.144;25.200;2023-07-13T02:26:09;100117.00;;;24.46;79.05
71149;BME280;59072;42.144;25.200;2023-07-13T02:28:35;100115.47;;;24.54;78.78
71149;BME280;59072;42.144;25.200;2023-07-13T02:31:13;100117.25;;;24.36;78.96
71149;BME280;59072;42.144;25.200;2023-07-13T02:33:39;100119.72;;;24.24;80.65
71149;BME280;59072;42.144;25.200;2023-07-13T02:36:07;100123.06;;;24.43;78.62
71149;BME280;59072;42.144;25.200;2023-07-13T02:38:36;100122.81;;;24.54;77.79
71149;BME280;59072;42.144;25.200;2023-07-13T02:41:06;100127.22;;;24.18;79.86
71149;BME280;59072;42.144;25.200;2023-07-13T02:43:37;100130.72;;;24.41;78.46
71149;BME280;59072;42.144;25.200;2023-07-13T02:46:03;100136.06;;;24.24;78.46
71149;BME280;59072;42.144;25.200;2023-07-13T02:48:36;100133.84;;;23.76;80.31
71149;BME280;59072;42.144;25.200;2023-07-13T02:51:02;100132.06;;;23.43;82.82
71149;BME280;59072;42.144;25.200;2023-07-13T02:53:27;100126.94;;;23.14;83.72
71149;BME280;59072;42.144;25.200;2023-07-13T02:55:55;100130.28;;;22.92;84.79
71149;BME280;59072;42.144;25.200;2023-07-13T02:58:21;100131.16;;;23.20;83.12
71149;BME280;59072;42.144;25.200;2023-07-13T03:00:47;100137.91;;;23.23;82.62
71149;BME280;59072;42.144;25.200;2023-07-13T03:03:15;100136.50;;;23.39;82.41
71149;BME280;59072;42.144;25.200;2023-07-13T03:05:43;100143.06;;;23.38;83.00
71149;BME280;59072;42.144;25.200;2023-07-13T03:08:10;100140.22;;;23.71;81.98
71149;BME280;59072;42.144;25.200;2023-07-13T03:10:36;100140.84;;;23.54;82.66
71149;BME280;59072;42.144;25.200;2023-07-13T03:13:02;100135.78;;;23.06;85.46
71149;BME280;59072;42.144;25.200;2023-07-13T03:15:27;100136.59;;;22.74;88.68
71149;BME280;59072;42.144;25.200;2023-07-13T03:17:53;100138.91;;;22.66;87.99
71149;BME280;59072;42.144;25.200;2023-07-13T03:20:18;100139.63;;;23.05;85.71
71149;BME280;59072;42.144;25.200;2023-07-13T03:22:45;100137.03;;;23.27;84.69
71149;BME280;59072;42.144;25.200;2023-07-13T03:25:11;100133.19;;;23.29;84.23
71149;BME280;59072;42.144;25.200;2023-07-13T03:27:39;100135.53;;;22.89;85.81
71149;BME280;59072;42.144;25.200;2023-07-13T03:30:05;100140.94;;;22.75;87.75
71149;BME280;59072;42.144;25.200;2023-07-13T03:32:31;100153.13;;;23.10;85.68
71149;BME280;59072;42.144;25.200;2023-07-13T03:35:07;100151.25;;;22.92;87.63
71149;BME280;59072;42.144;25.200;2023-07-13T03:37:34;100148.72;;;22.81;88.71
71149;BME280;59072;42.144;25.200;2023-07-13T03:42:24;100148.72;;;22.49;91.33
71149;BME280;59072;42.144;25.200;2023-07-13T03:44:51;100146.16;;;22.71;90.27
71149;BME280;59072;42.144;25.200;2023-07-13T03:47:18;100151.44;;;22.81;89.99
71149;BME280;59072;42.144;25.200;2023-07-13T03:49:45;100146.09;;;22.76;90.02
71149;BME280;59072;42.144;25.200;2023-07-13T03:52:11;100142.53;;;22.76;89.99
71149;BME280;59072;42.144;25.200;2023-07-13T03:54:36;100140.44;;;22.73;90.24
71149;BME280;59072;42.144;25.200;2023-07-13T03:57:02;100143.75;;;22.70;92.17
71149;BME280;59072;42.144;25.200;2023-07-13T03:59:27;100132.56;;;23.04;89.87
71149;BME280;59072;42.144;25.200;2023-07-13T04:01:53;100155.75;;;23.15;89.29
71149;BME280;59072;42.144;25.200;2023-07-13T04:04:20;100150.94;;;23.40;88.03
71149;BME280;59072;42.144;25.200;2023-07-13T04:06:46;100147.28;;;23.31;89.40
71149;BME280;59072;42.144;25.200;2023-07-13T04:09:11;100150.31;;;23.57;87.62
71149;BME280;59072;42.144;25.200;2023-07-13T04:11:36;100144.66;;;23.53;88.26
71149;BME280;59072;42.144;25.200;2023-07-13T04:14:02;100148.50;;;23.38;88.97
71149;BME280;59072;42.144;25.200;2023-07-13T04:16:28;100142.44;;;23.41;89.11
71149;BME280;59072;42.144;25.200;2023-07-13T04:18:55;100133.56;;;23.50;89.33
71149;BME280;59072;42.144;25.200;2023-07-13T04:21:25;100136.28;;;23.50;89.81
71149;BME280;59072;42.144;25.200;2023-07-13T04:23:51;100126.50;;;24.13;85.91
71149;BME280;59072;42.144;25.200;2023-07-13T04:26:16;100139.50;;;24.30;84.43
71149;BME280;59072;42.144;25.200;2023-07-13T04:28:42;100147.56;;;24.57;82.84
71149;BME280;59072;42.144;25.200;2023-07-13T04:31:07;100148.97;;;24.77;81.60
71149;BME280;59072;42.144;25.200;2023-07-13T04:33:33;100149.69;;;24.92;80.82
71149;BME280;59072;42.144;25.200;2023-07-13T04:35:59;100148.53;;;25.15;77.66
71149;BME280;59072;42.144;25.200;2023-07-13T04:38:30;100146.84;;;24.97;77.90
71149;BME280;59072;42.144;25.200;2023-07-13T04:40:57;100144.94;;;25.06;77.15
71149;BME280;59072;42.144;25.200;2023-07-13T04:43:23;100154.88;;;25.02;78.04
71149;BME280;59072;42.144;25.200;2023-07-13T04:45:50;100153.25;;;25.23;77.86
71149;BME280;59072;42.144;25.200;2023-07-13T04:48:19;100163.22;;;25.28;77.67
71149;BME280;59072;42.144;25.200;2023-07-13T04:50:45;100172.91;;;25.43;76.98
71149;BME280;59072;42.144;25.200;2023-07-13T04:53:11;100169.50;;;25.37;77.19
71149;BME280;59072;42.144;25.200;2023-07-13T04:55:37;100166.94;;;25.41;77.84
71149;BME280;59072;42.144;25.200;2023-07-13T04:58:03;100160.34;;;25.33;77.53
71149;BME280;59072;42.144;25.200;2023-07-13T05:00:29;100154.81;;;25.64;76.57
71149;BME280;59072;42.144;25.200;2023-07-13T05:02:58;100152.56;;;25.66;75.81
71149;BME280;59072;42.144;25.200;2023-07-13T05:05:26;100160.78;;;25.84;74.40
71149;BME280;59072;42.144;25.200;2023-07-13T05:07:53;100164.97;;;25.73;75.59
71149;BME280;59072;42.144;25.200;2023-07-13T05:10:19;100164.22;;;25.98;75.37
71149;BME280;59072;42.144;25.200;2023-07-13T05:12:44;100156.19;;;26.11;73.71
71149;BME280;59072;42.144;25.200;2023-07-13T05:15:10;100168.41;;;26.22;72.27
71149;BME280;59072;42.144;25.200;2023-07-13T05:17:38;100171.00;;;26.36;72.88
71149;BME280;59072;42.144;25.200;2023-07-13T05:20:07;100153.75;;;26.53;71.51
71149;BME280;59072;42.144;25.200;2023-07-13T05:22:33;100163.25;;;26.64;70.54
71149;BME280;59072;42.144;25.200;2023-07-13T05:25:04;100177.25;;;26.71;70.16
71149;BME280;59072;42.144;25.200;2023-07-13T05:27:30;100176.28;;;26.76;70.46
71149;BME280;59072;42.144;25.200;2023-07-13T05:29:55;100165.59;;;27.00;69.38
71149;BME280;59072;42.144;25.200;2023-07-13T05:32:24;100166.69;;;27.08;68.59
71149;BME280;59072;42.144;25.200;2023-07-13T05:34:49;100178.53;;;27.38;68.06
71149;BME280;59072;42.144;25.200;2023-07-13T05:37:15;100175.91;;;27.42;66.94
71149;BME280;59072;42.144;25.200;2023-07-13T05:39:40;100176.22;;;27.49;67.50
71149;BME280;59072;42.144;25.200;2023-07-13T05:42:06;100184.13;;;27.72;67.48
71149;BME280;59072;42.144;25.200;2023-07-13T05:44:31;100188.03;;;27.71;65.86
71149;BME280;59072;42.144;25.200;2023-07-13T05:46:57;100186.56;;;27.73;66.48
71149;BME280;59072;42.144;25.200;2023-07-13T05:49:23;100178.28;;;27.82;64.96
71149;BME280;59072;42.144;25.200;2023-07-13T05:51:48;100182.75;;;28.16;63.26
71149;BME280;59072;42.144;25.200;2023-07-13T05:54:14;100180.34;;;28.15;65.56
71149;BME280;59072;42.144;25.200;2023-07-13T05:56:39;100187.94;;;27.88;66.87
71149;BME280;59072;42.144;25.200;2023-07-13T05:59:12;100179.72;;;27.88;64.90
71149;BME280;59072;42.144;25.200;2023-07-13T06:01:38;100164.19;;;28.13;63.51
71149;BME280;59072;42.144;25.200;2023-07-13T06:04:03;100185.41;;;28.25;62.21
71149;BME280;59072;42.144;25.200;2023-07-13T06:06:29;100184.28;;;28.26;60.66
71149;BME280;59072;42.144;25.200;2023-07-13T06:08:54;100179.50;;;28.35;61.53
71149;BME280;59072;42.144;25.200;2023-07-13T06:11:22;100179.31;;;28.40;60.62
71149;BME280;59072;42.144;25.200;2023-07-13T06:13:53;100177.63;;;28.48;59.46
71149;BME280;59072;42.144;25.200;2023-07-13T06:16:19;100176.31;;;28.54;58.29
71149;BME280;59072;42.144;25.200;2023-07-13T06:18:45;100179.63;;;28.60;59.85
71149;BME280;59072;42.144;25.200;2023-07-13T06:21:22;100182.50;;;28.97;57.90
71149;BME280;59072;42.144;25.200;2023-07-13T06:23:49;100168.66;;;28.93;57.48
71149;BME280;59072;42.144;25.200;2023-07-13T06:26:16;100171.47;;;29.18;58.53
71149;BME280;59072;42.144;25.200;2023-07-13T06:28:43;100162.19;;;29.22;57.59
71149;BME280;59072;42.144;25.200;2023-07-13T06:31:10;100167.34;;;29.12;58.25
71149;BME280;59072;42.144;25.200;2023-07-13T06:33:36;100165.88;;;29.27;55.96
71149;BME280;59072;42.144;25.200;2023-07-13T06:36:03;100171.81;;;29.29;57.16
71149;BME280;59072;42.144;25.200;2023-07-13T06:38:29;100163.00;;;29.48;58.11
71149;BME280;59072;42.144;25.200;2023-07-13T06:40:57;100168.16;;;29.74;54.31
71149;BME280;59072;42.144;25.200;2023-07-13T06:43:22;100165.16;;;29.79;55.18
71149;BME280;59072;42.144;25.200;2023-07-13T06:45:50;100171.22;;;29.84;53.43
71149;BME280;59072;42.144;25.200;2023-07-13T06:48:18;100142.50;;;29.45;52.94
71149;BME280;59072;42.144;25.200;2023-07-13T06:50:44;100166.03;;;29.95;53.87
71149;BME280;59072;42.144;25.200;2023-07-13T06:53:11;100161.94;;;29.89;53.84
71149;BME280;59072;42.144;25.200;2023-07-13T06:55:37;100158.78;;;30.15;52.90
71149;BME280;59072;42.144;25.200;2023-07-13T06:58:03;100166.63;;;30.41;50.27
71149;BME280;59072;42.144;25.200;2023-07-13T07:00:28;100158.81;;;30.43;49.79
71149;BME280;59072;42.144;25.200;2023-07-13T07:02:54;100160.09;;;30.62;49.69
71149;BME280;59072;42.144;25.200;2023-07-13T07:05:19;100140.81;;;30.62;50.46
71149;BME280;59072;42.144;25.200;2023-07-13T07:07:50;100149.66;;;30.83;49.24
71149;BME280;59072;42.144;25.200;2023-07-13T07:10:16;100147.44;;;30.89;48.95
71149;BME280;59072;42.144;25.200;2023-07-13T07:12:41;100164.78;;;31.21;48.04
71149;BME280;59072;42.144;25.200;2023-07-13T07:15:09;100155.78;;;31.40;48.84
71149;BME280;59072;42.144;25.200;2023-07-13T07:17:35;100155.72;;;31.37;47.44
71149;BME280;59072;42.144;25.200;2023-07-13T07:20:00;100151.28;;;31.48;48.67
71149;BME280;59072;42.144;25.200;2023-07-13T07:22:26;100159.19;;;31.85;46.11
71149;BME280;59072;42.144;25.200;2023-07-13T07:24:55;100155.41;;;31.74;46.79
71149;BME280;59072;42.144;25.200;2023-07-13T07:27:21;100154.31;;;31.78;47.26
71149;BME280;59072;42.144;25.200;2023-07-13T07:29:46;100157.91;;;31.98;45.88
71149;BME280;59072;42.144;25.200;2023-07-13T07:32:12;100149.34;;;32.03;47.06
71149;BME280;59072;42.144;25.200;2023-07-13T07:34:44;100153.72;;;32.24;45.41
71149;BME280;59072;42.144;25.200;2023-07-13T07:37:14;100149.03;;;31.89;43.81
71149;BME280;59072;42.144;25.200;2023-07-13T07:39:39;100150.22;;;31.88;43.82
71149;BME280;59072;42.144;25.200;2023-07-13T07:42:08;100153.00;;;32.08;42.82
71149;BME280;59072;42.144;25.200;2023-07-13T07:44:37;100156.88;;;31.87;42.27
71149;BME280;59072;42.144;25.200;2023-07-13T07:47:05;100161.72;;;32.29;41.58
71149;BME280;59072;42.144;25.200;2023-07-13T07:49:31;100153.34;;;32.45;41.81
71149;BME280;59072;42.144;25.200;2023-07-13T07:52:02;100154.44;;;32.60;40.81
71149;BME280;59072;42.144;25.200;2023-07-13T07:54:27;100162.56;;;32.72;39.15
71149;BME280;59072;42.144;25.200;2023-07-13T07:56:53;100150.97;;;32.43;40.34
71149;BME280;59072;42.144;25.200;2023-07-13T07:59:19;100154.56;;;32.67;39.81
71149;BME280;59072;42.144;25.200;2023-07-13T08:01:49;100149.03;;;32.67;39.85
71149;BME280;59072;42.144;25.200;2023-07-13T08:04:16;100135.38;;;32.97;40.41
71149;BME280;59072;42.144;25.200;2023-07-13T08:06:41;100144.94;;;33.03;40.44
71149;BME280;59072;42.144;25.200;2023-07-13T08:09:10;100137.03;;;33.02;40.15
71149;BME280;59072;42.144;25.200;2023-07-13T08:11:35;100145.31;;;33.02;39.51
71149;BME280;59072;42.144;25.200;2023-07-13T08:14:03;100147.94;;;33.14;39.25
71149;BME280;59072;42.144;25.200;2023-07-13T08:16:28;100142.69;;;33.09;39.54
71149;BME280;59072;42.144;25.200;2023-07-13T08:18:58;100127.56;;;33.03;40.02
71149;BME280;59072;42.144;25.200;2023-07-13T08:21:23;100130.19;;;33.42;39.41
71149;BME280;59072;42.144;25.200;2023-07-13T08:23:49;100142.63;;;33.55;38.77
71149;BME280;59072;42.144;25.200;2023-07-13T08:26:14;100142.00;;;33.66;38.28
71149;BME280;59072;42.144;25.200;2023-07-13T08:28:41;100143.22;;;33.98;37.56
71149;BME280;59072;42.144;25.200;2023-07-13T08:31:09;100132.81;;;33.88;37.72
71149;BME280;59072;42.144;25.200;2023-07-13T08:33:38;100139.88;;;33.86;37.47
71149;BME280;59072;42.144;25.200;2023-07-13T08:36:04;100137.97;;;33.90;38.30
71149;BME280;59072;42.144;25.200;2023-07-13T08:38:30;100137.53;;;34.18;38.06
71149;BME280;59072;42.144;25.200;2023-07-13T08:40:56;100136.53;;;34.33;35.98
71149;BME280;59072;42.144;25.200;2023-07-13T08:43:28;100130.31;;;34.10;37.52
71149;BME280;59072;42.144;25.200;2023-07-13T08:46:01;100130.22;;;34.36;36.93
71149;BME280;59072;42.144;25.200;2023-07-13T08:48:49;100133.72;;;34.67;36.10
71149;BME280;59072;42.144;25.200;2023-07-13T08:51:39;100136.91;;;34.69;36.54
71149;BME280;59072;42.144;25.200;2023-07-13T08:54:32;100141.63;;;34.65;36.51
71149;BME280;59072;42.144;25.200;2023-07-13T08:56:56;100140.66;;;34.88;38.13
71149;BME280;59072;42.144;25.200;2023-07-13T08:59:26;100136.13;;;35.13;36.43
71149;BME280;59072;42.144;25.200;2023-07-13T09:04:50;100111.16;;;35.13;34.88
71149;BME280;59072;42.144;25.200;2023-07-13T09:15:35;100111.31;;;35.28;36.04
71149;BME280;59072;42.144;25.200;2023-07-13T09:18:14;100099.59;;;35.63;36.20
71149;BME280;59072;42.144;25.200;2023-07-13T09:20:58;100105.31;;;35.95;35.75
71149;BME280;59072;42.144;25.200;2023-07-13T09:23:27;100104.19;;;36.11;34.37
71149;BME280;59072;42.144;25.200;2023-07-13T09:26:01;100112.19;;;36.19;33.00
71149;BME280;59072;42.144;25.200;2023-07-13T09:28:35;100095.13;;;36.28;32.31
71149;BME280;59072;42.144;25.200;2023-07-13T09:31:19;100102.28;;;36.33;33.27
71149;BME280;59072;42.144;25.200;2023-07-13T09:33:48;100084.06;;;36.35;32.92
71149;BME280;59072;42.144;25.200;2023-07-13T09:36:29;100098.72;;;36.36;32.14
71149;BME280;59072;42.144;25.200;2023-07-13T09:39:18;100084.91;;;36.79;31.93
71149;BME280;59072;42.144;25.200;2023-07-13T09:41:54;100068.22;;;36.72;31.36
71149;BME280;59072;42.144;25.200;2023-07-13T09:44:36;100072.19;;;36.82;32.32
71149;BME280;59072;42.144;25.200;2023-07-13T09:47:03;100066.63;;;36.99;31.57
71149;BME280;59072;42.144;25.200;2023-07-13T09:49:33;100068.19;;;37.22;29.64
71149;BME280;59072;42.144;25.200;2023-07-13T09:52:02;100065.69;;;37.64;30.77
71149;BME280;59072;42.144;25.200;2023-07-13T09:54:43;100058.91;;;37.72;30.02
71149;BME280;59072;42.144;25.200;2023-07-13T09:57:22;100056.03;;;37.93;28.40
71149;BME280;59072;42.144;25.200;2023-07-13T09:59:50;100053.66;;;37.88;27.96
71149;BME280;59072;42.144;25.200;2023-07-13T10:05:02;100035.00;;;37.85;25.98
71149;BME280;59072;42.144;25.200;2023-07-13T10:07:30;100041.66;;;38.06;27.00
71149;BME280;59072;42.144;25.200;2023-07-13T10:09:57;100033.75;;;37.93;26.11
71149;BME280;59072;42.144;25.200;2023-07-13T10:12:28;100037.63;;;38.14;25.64
71149;BME280;59072;42.144;25.200;2023-07-13T10:14:58;100023.19;;;38.33;26.59
71149;BME280;59072;42.144;25.200;2023-07-13T10:17:34;100026.25;;;38.50;24.31
71149;BME280;59072;42.144;25.200;2023-07-13T10:20:03;100018.75;;;38.39;25.16
71149;BME280;59072;42.144;25.200;2023-07-13T10:22:37;100005.41;;;38.65;25.95
71149;BME280;59072;42.144;25.200;2023-07-13T10:25:21;100014.72;;;38.93;25.15
71149;BME280;59072;42.144;25.200;2023-07-13T10:27:53;100007.56;;;39.30;24.45
71149;BME280;59072;42.144;25.200;2023-07-13T10:30:20;100009.25;;;39.20;23.65
71149;BME280;59072;42.144;25.200;2023-07-13T10:32:49;100013.81;;;39.41;22.65
71149;BME280;59072;42.144;25.200;2023-07-13T10:35:17;100012.47;;;39.53;24.12
71149;BME280;59072;42.144;25.200;2023-07-13T10:40:28;100013.19;;;39.91;22.56
71149;BME280;59072;42.144;25.200;2023-07-13T10:42:58;100006.88;;;40.11;23.39
71149;BME280;59072;42.144;25.200;2023-07-13T10:45:28;100012.13;;;40.36;21.08
71149;BME280;59072;42.144;25.200;2023-07-13T10:47:55;100016.06;;;40.39;20.69
71149;BME280;59072;42.144;25.200;2023-07-13T10:50:25;100006.34;;;40.47;22.16
71149;BME280;59072;42.144;25.200;2023-07-13T10:52:53;99984.91;;;40.40;21.46
71149;BME280;59072;42.144;25.200;2023-07-13T10:58:13;99999.53;;;40.95;22.21
71149;BME280;59072;42.144;25.200;2023-07-13T11:03:24;99989.81;;;40.80;19.71
71149;BME280;59072;42.144;25.200;2023-07-13T11:06:50;99994.56;;;40.83;19.62
71149;BME280;59072;42.144;25.200;2023-07-13T11:08:58;99979.84;;;40.55;20.68
71149;BME280;59072;42.144;25.200;2023-07-13T11:21:29;99976.31;;;41.18;21.07
71149;BME280;59072;42.144;25.200;2023-07-13T11:29:36;99964.44;;;41.10;21.54
71149;BME280;59072;42.144;25.200;2023-07-13T11:32:23;99965.59;;;41.33;20.42
71149;BME280;59072;42.144;25.200;2023-07-13T11:34:49;99969.31;;;41.06;19.24
71149;BME280;59072;42.144;25.200;2023-07-13T11:37:19;99972.69;;;41.38;19.29
71149;BME280;59072;42.144;25.200;2023-07-13T11:39:46;99960.34;;;41.35;18.76
71149;BME280;59072;42.144;25.200;2023-07-13T11:42:15;99958.97;;;41.43;19.35
71149;BME280;59072;42.144;25.200;2023-07-13T11:44:47;99968.09;;;41.27;18.97
71149;BME280;59072;42.144;25.200;2023-07-13T11:47:21;99967.22;;;41.50;19.63
71149;BME280;59072;42.144;25.200;2023-07-13T11:49:54;99964.34;;;41.18;18.61
71149;BME280;59072;42.144;25.200;2023-07-13T11:52:32;99948.16;;;41.25;18.95
71149;BME280;59072;42.144;25.200;2023-07-13T11:55:03;99955.47;;;41.59;18.02
71149;BME280;59072;42.144;25.200;2023-07-13T11:57:40;99943.72;;;41.28;18.04
71149;BME280;59072;42.144;25.200;2023-07-13T12:00:15;99953.06;;;41.58;19.90
71149;BME280;59072;42.144;25.200;2023-07-13T12:02:45;99948.03;;;41.69;17.83
71149;BME280;59072;42.144;25.200;2023-07-13T12:05:13;99941.22;;;41.70;18.29
71149;BME280;59072;42.144;25.200;2023-07-13T12:07:40;99930.44;;;41.68;17.40
71149;BME280;59072;42.144;25.200;2023-07-13T12:12:40;99936.16;;;41.98;17.93
71149;BME280;59072;42.144;25.200;2023-07-13T12:15:11;99930.09;;;41.83;18.24
71149;BME280;59072;42.144;25.200;2023-07-13T12:17:36;99932.13;;;41.99;18.46
71149;BME280;59072;42.144;25.200;2023-07-13T12:20:17;99929.41;;;42.28;18.18
71149;BME280;59072;42.144;25.200;2023-07-13T12:22:51;99922.31;;;42.23;16.72
71149;BME280;59072;42.144;25.200;2023-07-13T12:25:19;99915.81;;;42.43;19.25
71149;BME280;59072;42.144;25.200;2023-07-13T12:27:49;99915.75;;;42.75;17.13
71149;BME280;59072;42.144;25.200;2023-07-13T12:30:35;99912.59;;;42.73;17.67
71149;BME280;59072;42.144;25.200;2023-07-13T12:33:02;99910.00;;;42.96;16.62
71149;BME280;59072;42.144;25.200;2023-07-13T12:35:30;99907.47;;;42.85;18.22
71149;BME280;59072;42.144;25.200;2023-07-13T12:37:58;99904.28;;;43.12;18.83
71149;BME280;59072;42.144;25.200;2023-07-13T12:40:31;99915.06;;;42.71;18.15
71149;BME280;59072;42.144;25.200;2023-07-13T12:43:16;99905.91;;;42.54;18.60
71149;BME280;59072;42.144;25.200;2023-07-13T12:46:19;99905.00;;;42.87;18.52
71149;BME280;59072;42.144;25.200;2023-07-13T12:48:49;99890.69;;;42.68;18.46
71149;BME280;59072;42.144;25.200;2023-07-13T12:51:15;99888.31;;;42.96;19.42
71149;BME280;59072;42.144;25.200;2023-07-13T12:53:47;99880.38;;;43.07;18.91
71149;BME280;59072;42.144;25.200;2023-07-13T12:56:19;99876.53;;;43.01;18.87
71149;BME280;59072;42.144;25.200;2023-07-13T12:58:47;99882.28;;;43.23;19.59
71149;BME280;59072;42.144;25.200;2023-07-13T13:01:17;99875.03;;;43.51;18.06
71149;BME280;59072;42.144;25.200;2023-07-13T13:03:47;99861.78;;;43.39;18.51
71149;BME280;59072;42.144;25.200;2023-07-13T13:06:33;99868.50;;;43.80;17.62
71149;BME280;59072;42.144;25.200;2023-07-13T13:09:01;99875.28;;;44.05;18.08
71149;BME280;59072;42.144;25.200;2023-07-13T13:11:31;99872.06;;;43.93;17.90
71149;BME280;59072;42.144;25.200;2023-07-13T13:13:57;99875.13;;;43.48;18.27
71149;BME280;59072;42.144;25.200;2023-07-13T13:18:53;99861.50;;;42.95;18.72
71149;BME280;59072;42.144;25.200;2023-07-13T13:21:27;99868.13;;;43.01;19.46
71149;BME280;59072;42.144;25.200;2023-07-13T13:23:52;99872.19;;;43.13;17.81
71149;BME280;59072;42.144;25.200;2023-07-13T13:26:19;99856.91;;;42.88;17.36
71149;BME280;59072;42.144;25.200;2023-07-13T13:28:45;99865.94;;;43.47;19.02
71149;BME280;59072;42.144;25.200;2023-07-13T13:31:12;99870.19;;;43.78;17.47
71149;BME280;59072;42.144;25.200;2023-07-13T13:33:40;99854.38;;;43.71;18.83
71149;BME280;59072;42.144;25.200;2023-07-13T13:36:15;99843.06;;;43.97;18.39
71149;BME280;59072;42.144;25.200;2023-07-13T13:38:42;99832.59;;;43.97;17.65